sensor_id;sensor_type;location;lat;lon;timestamp;P1;durP1;ratioP1;P2;durP2;ratioP2
55417;SDS011;41287;47.554;7.844;2023-02-16T00:01:26;4.53;;;2.45;;
55417;SDS011;41287;47.554;7.844;2023-02-16T00:03:55;3.17;;;2.05;;
55417;SDS011;41287;47.554;7.844;2023-02-16T00:06:21;4.15;;;1.92;;
55417;SDS011;41287;47.554;7.844;2023-02-16T00:08:48;2.95;;;2.10;;
55417;SDS011;41287;47.554;7.844;2023-02-16T00:11:17;3.42;;;2.35;;
55417;SDS011;41287;47.554;7.844;2023-02-16T00:14:04;3.47;;;2.10;;
55417;SDS011;41287;47.554;7.844;2023-02-16T00:16:33;2.42;;;1.92;;
55417;SDS011;41287;47.554;7.844;2023-02-16T00:18:59;4.03;;;2.30;;
55417;SDS011;41287;47.554;7.844;2023-02-16T00:21:24;3.15;;;2.30;;
55417;SDS011;41287;47.554;7.844;2023-02-16T00:23:50;2.60;;;1.88;;
55417;SDS011;41287;47.554;7.844;2023-02-16T00:26:20;3.78;;;2.38;;
55417;SDS011;41287;47.554;7.844;2023-02-16T00:28:48;4.72;;;2.15;;
55417;SDS011;41287;47.554;7.844;2023-02-16T00:31:18;3.45;;;2.05;;
55417;SDS011;41287;47.554;7.844;2023-02-16T00:33:45;4.88;;;2.40;;
55417;SDS011;41287;47.554;7.844;2023-02-16T00:36:11;2.88;;;2.00;;
55417;SDS011;41287;47.554;7.844;2023-02-16T00:38:36;3.35;;;2.10;;
55417;SDS011;41287;47.554;7.844;2023-02-16T00:41:01;2.75;;;2.20;;
55417;SDS011;41287;47.554;7.844;2023-02-16T00:43:28;2.30;;;1.92;;
55417;SDS011;41287;47.554;7.844;2023-02-16T00:45:57;3.70;;;2.05;;
55417;SDS011;41287;47.554;7.844;2023-02-16T00:48:23;3.58;;;2.17;;
55417;SDS011;41287;47.554;7.844;2023-02-16T00:50:48;2.55;;;2.08;;
55417;SDS011;41287;47.554;7.844;2023-02-16T00:53:14;4.15;;;2.10;;
55417;SDS011;41287;47.554;7.844;2023-02-16T00:55:40;2.63;;;1.63;;
55417;SDS011;41287;47.554;7.844;2023-02-16T00:58:12;2.40;;;1.80;;
55417;SDS011;41287;47.554;7.844;2023-02-16T01:00:45;3.15;;;1.90;;
55417;SDS011;41287;47.554;7.844;2023-02-16T01:03:21;2.80;;;1.85;;
55417;SDS011;41287;47.554;7.844;2023-02-16T01:05:49;3.33;;;2.03;;
55417;SDS011;41287;47.554;7.844;2023-02-16T01:08:34;4.43;;;2.20;;
55417;SDS011;41287;47.554;7.844;2023-02-16T01:13:45;2.97;;;1.83;;
55417;SDS011;41287;47.554;7.844;2023-02-16T01:16:14;3.42;;;2.30;;
55417;SDS011;41287;47.554;7.844;2023-02-16T01:18:42;3.85;;;2.08;;
55417;SDS011;41287;47.554;7.844;2023-02-16T01:21:08;2.97;;;2.10;;
55417;SDS011;41287;47.554;7.844;2023-02-16T01:23:35;2.35;;;1.80;;
55417;SDS011;41287;47.554;7.844;2023-02-16T01:26:01;4.07;;;2.55;;
55417;SDS011;41287;47.554;7.844;2023-02-16T01:28:29;3.22;;;2.15;;
55417;SDS011;41287;47.554;7.844;2023-02-16T01:30:58;3.85;;;2.10;;
55417;SDS011;41287;47.554;7.844;2023-02-16T01:33:23;2.63;;;2.05;;
55417;SDS011;41287;47.554;7.844;2023-02-16T01:35:48;3.13;;;2.20;;
55417;SDS011;41287;47.554;7.844;2023-02-16T01:38:18;3.58;;;2.13;;
55417;SDS011;41287;47.554;7.844;2023-02-16T01:41:20;2.08;;;1.60;;
55417;SDS011;41287;47.554;7.844;2023-02-16T01:44:02;2.40;;;1.65;;
55417;SDS011;41287;47.554;7.844;2023-02-16T01:46:42;3.15;;;1.90;;
55417;SDS011;41287;47.554;7.844;2023-02-16T01:49:15;2.78;;;2.00;;
55417;SDS011;41287;47.554;7.844;2023-02-16T01:51:47;3.00;;;2.13;;
55417;SDS011;41287;47.554;7.844;2023-02-16T01:54:37;2.50;;;2.03;;
55417;SDS011;41287;47.554;7.844;2023-02-16T02:04:43;1.80;;;1.50;;
55417;SDS011;41287;47.554;7.844;2023-02-16T02:07:35;2.70;;;1.90;;
55417;SDS011;41287;47.554;7.844;2023-02-16T02:10:19;3.55;;;2.22;;
55417;SDS011;41287;47.554;7.844;2023-02-16T02:12:51;2.88;;;2.03;;
55417;SDS011;41287;47.554;7.844;2023-02-16T02:15:22;3.63;;;2.00;;
55417;SDS011;41287;47.554;7.844;2023-02-16T02:17:51;2.40;;;1.88;;
55417;SDS011;41287;47.554;7.844;2023-02-16T02:23:42;2.40;;;1.67;;
55417;SDS011;41287;47.554;7.844;2023-02-16T02:35:18;5.10;;;1.88;;
55417;SDS011;41287;47.554;7.844;2023-02-16T02:37:57;2.67;;;2.00;;
55417;SDS011;41287;47.554;7.844;2023-02-16T02:43:13;2.83;;;1.92;;
55417;SDS011;41287;47.554;7.844;2023-02-16T02:45:51;2.55;;;1.90;;
55417;SDS011;41287;47.554;7.844;2023-02-16T02:48:20;3.60;;;2.40;;
55417;SDS011;41287;47.554;7.844;2023-02-16T02:53:44;2.47;;;1.88;;
55417;SDS011;41287;47.554;7.844;2023-02-16T02:56:14;3.50;;;2.30;;
55417;SDS011;41287;47.554;7.844;2023-02-16T02:59:02;2.42;;;1.73;;
55417;SDS011;41287;47.554;7.844;2023-02-16T03:01:52;2.67;;;1.90;;
55417;SDS011;41287;47.554;7.844;2023-02-16T03:04:23;2.70;;;1.70;;
55417;SDS011;41287;47.554;7.844;2023-02-16T03:06:52;3.38;;;2.10;;
55417;SDS011;41287;47.554;7.844;2023-02-16T03:09:22;2.42;;;1.75;;
55417;SDS011;41287;47.554;7.844;2023-02-16T03:11:48;2.67;;;1.90;;
55417;SDS011;41287;47.554;7.844;2023-02-16T03:14:34;2.65;;;1.85;;
55417;SDS011;41287;47.554;7.844;2023-02-16T03:17:05;2.90;;;1.90;;
55417;SDS011;41287;47.554;7.844;2023-02-16T03:19:53;3.03;;;1.90;;
55417;SDS011;41287;47.554;7.844;2023-02-16T03:22:38;2.53;;;1.90;;
55417;SDS011;41287;47.554;7.844;2023-02-16T03:25:25;2.63;;;1.73;;
55417;SDS011;41287;47.554;7.844;2023-02-16T03:28:13;2.92;;;1.90;;
55417;SDS011;41287;47.554;7.844;2023-02-16T03:30:56;3.63;;;1.70;;
55417;SDS011;41287;47.554;7.844;2023-02-16T03:33:24;1.83;;;1.50;;
55417;SDS011;41287;47.554;7.844;2023-02-16T03:35:51;2.95;;;1.80;;
55417;SDS011;41287;47.554;7.844;2023-02-16T03:38:17;2.92;;;1.90;;
55417;SDS011;41287;47.554;7.844;2023-02-16T03:40:43;2.38;;;1.60;;
55417;SDS011;41287;47.554;7.844;2023-02-16T03:43:10;2.88;;;1.80;;
55417;SDS011;41287;47.554;7.844;2023-02-16T03:45:36;2.22;;;1.63;;
55417;SDS011;41287;47.554;7.844;2023-02-16T03:48:05;2.22;;;1.85;;
55417;SDS011;41287;47.554;7.844;2023-02-16T03:50:31;2.80;;;1.65;;
55417;SDS011;41287;47.554;7.844;2023-02-16T03:52:58;1.88;;;1.50;;
55417;SDS011;41287;47.554;7.844;2023-02-16T03:55:33;2.65;;;1.80;;
55417;SDS011;41287;47.554;7.844;2023-02-16T03:58:02;3.42;;;1.80;;
55417;SDS011;41287;47.554;7.844;2023-02-16T04:00:28;2.20;;;1.90;;
55417;SDS011;41287;47.554;7.844;2023-02-16T04:02:54;3.08;;;1.95;;
55417;SDS011;41287;47.554;7.844;2023-02-16T04:05:19;2.95;;;1.90;;
55417;SDS011;41287;47.554;7.844;2023-02-16T04:07:45;2.72;;;1.98;;
55417;SDS011;41287;47.554;7.844;2023-02-16T04:10:11;2.58;;;1.85;;
55417;SDS011;41287;47.554;7.844;2023-02-16T04:12:36;2.22;;;1.67;;
55417;SDS011;41287;47.554;7.844;2023-02-16T04:15:05;2.83;;;1.90;;
55417;SDS011;41287;47.554;7.844;2023-02-16T04:17:33;2.85;;;1.90;;
55417;SDS011;41287;47.554;7.844;2023-02-16T04:19:58;2.78;;;1.92;;
55417;SDS011;41287;47.554;7.844;2023-02-16T04:22:24;3.17;;;1.90;;
55417;SDS011;41287;47.554;7.844;2023-02-16T04:24:50;2.28;;;1.65;;
55417;SDS011;41287;47.554;7.844;2023-02-16T04:27:15;3.75;;;2.03;;
55417;SDS011;41287;47.554;7.844;2023-02-16T04:29:42;2.53;;;1.85;;
55417;SDS011;41287;47.554;7.844;2023-02-16T04:32:08;2.28;;;1.73;;
55417;SDS011;41287;47.554;7.844;2023-02-16T04:34:33;2.80;;;2.03;;
55417;SDS011;41287;47.554;7.844;2023-02-16T04:36:59;2.53;;;1.70;;
55417;SDS011;41287;47.554;7.844;2023-02-16T04:39:25;2.38;;;1.73;;
55417;SDS011;41287;47.554;7.844;2023-02-16T04:41:52;2.25;;;1.50;;
55417;SDS011;41287;47.554;7.844;2023-02-16T04:44:17;2.78;;;1.70;;
55417;SDS011;41287;47.554;7.844;2023-02-16T04:46:43;2.03;;;1.52;;
55417;SDS011;41287;47.554;7.844;2023-02-16T04:49:10;2.28;;;1.73;;
55417;SDS011;41287;47.554;7.844;2023-02-16T04:51:36;3.63;;;1.70;;
55417;SDS011;41287;47.554;7.844;2023-02-16T04:54:01;2.72;;;1.90;;
55417;SDS011;41287;47.554;7.844;2023-02-16T04:56:26;2.25;;;1.80;;
55417;SDS011;41287;47.554;7.844;2023-02-16T04:58:52;2.58;;;1.60;;
55417;SDS011;41287;47.554;7.844;2023-02-16T05:01:19;2.63;;;1.92;;
55417;SDS011;41287;47.554;7.844;2023-02-16T05:03:50;2.15;;;1.60;;
55417;SDS011;41287;47.554;7.844;2023-02-16T05:06:16;3.03;;;1.70;;
55417;SDS011;41287;47.554;7.844;2023-02-16T05:08:41;5.68;;;1.85;;
55417;SDS011;41287;47.554;7.844;2023-02-16T05:11:07;4.05;;;2.15;;
55417;SDS011;41287;47.554;7.844;2023-02-16T05:13:51;7.65;;;1.80;;
55417;SDS011;41287;47.554;7.844;2023-02-16T05:16:35;4.78;;;1.50;;
55417;SDS011;41287;47.554;7.844;2023-02-16T05:19:00;5.90;;;1.85;;
55417;SDS011;41287;47.554;7.844;2023-02-16T05:21:26;2.75;;;1.50;;
55417;SDS011;41287;47.554;7.844;2023-02-16T05:24:01;3.05;;;1.55;;
55417;SDS011;41287;47.554;7.844;2023-02-16T05:26:29;3.35;;;1.60;;
55417;SDS011;41287;47.554;7.844;2023-02-16T05:28:55;2.72;;;1.33;;
55417;SDS011;41287;47.554;7.844;2023-02-16T05:31:21;3.03;;;1.50;;
55417;SDS011;41287;47.554;7.844;2023-02-16T05:33:48;1.65;;;1.25;;
55417;SDS011;41287;47.554;7.844;2023-02-16T05:36:13;1.73;;;1.20;;
55417;SDS011;41287;47.554;7.844;2023-02-16T05:38:39;2.60;;;1.50;;
55417;SDS011;41287;47.554;7.844;2023-02-16T05:41:04;2.50;;;1.20;;
55417;SDS011;41287;47.554;7.844;2023-02-16T05:43:29;2.38;;;1.40;;
55417;SDS011;41287;47.554;7.844;2023-02-16T05:45:54;2.33;;;1.35;;
55417;SDS011;41287;47.554;7.844;2023-02-16T05:48:20;2.35;;;1.42;;
55417;SDS011;41287;47.554;7.844;2023-02-16T05:50:52;2.30;;;1.55;;
55417;SDS011;41287;47.554;7.844;2023-02-16T05:53:18;2.72;;;1.52;;
55417;SDS011;41287;47.554;7.844;2023-02-16T05:55:44;1.83;;;1.33;;
55417;SDS011;41287;47.554;7.844;2023-02-16T05:58:09;4.60;;;1.48;;
55417;SDS011;41287;47.554;7.844;2023-02-16T06:00:34;2.25;;;1.58;;
55417;SDS011;41287;47.554;7.844;2023-02-16T06:03:02;2.58;;;1.42;;
55417;SDS011;41287;47.554;7.844;2023-02-16T06:05:27;2.75;;;1.45;;
55417;SDS011;41287;47.554;7.844;2023-02-16T06:07:53;2.83;;;1.55;;
55417;SDS011;41287;47.554;7.844;2023-02-16T06:10:18;2.28;;;1.48;;
55417;SDS011;41287;47.554;7.844;2023-02-16T06:12:47;3.00;;;1.63;;
55417;SDS011;41287;47.554;7.844;2023-02-16T06:15:12;3.90;;;1.63;;
55417;SDS011;41287;47.554;7.844;2023-02-16T06:17:37;3.78;;;1.90;;
55417;SDS011;41287;47.554;7.844;2023-02-16T06:20:03;5.88;;;2.25;;
55417;SDS011;41287;47.554;7.844;2023-02-16T06:22:29;3.50;;;1.92;;
55417;SDS011;41287;47.554;7.844;2023-02-16T06:24:55;6.30;;;1.98;;
55417;SDS011;41287;47.554;7.844;2023-02-16T06:27:20;2.65;;;1.77;;
55417;SDS011;41287;47.554;7.844;2023-02-16T06:29:46;4.05;;;2.03;;
55417;SDS011;41287;47.554;7.844;2023-02-16T06:32:11;4.35;;;2.38;;
55417;SDS011;41287;47.554;7.844;2023-02-16T06:34:36;4.78;;;2.70;;
55417;SDS011;41287;47.554;7.844;2023-02-16T06:37:02;4.20;;;1.98;;
55417;SDS011;41287;47.554;7.844;2023-02-16T06:39:27;3.65;;;2.38;;
55417;SDS011;41287;47.554;7.844;2023-02-16T06:41:52;4.13;;;2.28;;
55417;SDS011;41287;47.554;7.844;2023-02-16T06:44:18;3.58;;;2.40;;
55417;SDS011;41287;47.554;7.844;2023-02-16T06:46:44;6.75;;;2.58;;
55417;SDS011;41287;47.554;7.844;2023-02-16T06:49:11;5.88;;;2.72;;
55417;SDS011;41287;47.554;7.844;2023-02-16T06:51:38;6.65;;;2.85;;
55417;SDS011;41287;47.554;7.844;2023-02-16T06:54:04;6.72;;;2.85;;
55417;SDS011;41287;47.554;7.844;2023-02-16T06:56:29;4.85;;;2.70;;
55417;SDS011;41287;47.554;7.844;2023-02-16T06:58:54;6.20;;;2.67;;
55417;SDS011;41287;47.554;7.844;2023-02-16T07:01:20;3.10;;;2.25;;
55417;SDS011;41287;47.554;7.844;2023-02-16T07:03:50;4.10;;;2.72;;
55417;SDS011;41287;47.554;7.844;2023-02-16T07:06:17;3.47;;;2.30;;
55417;SDS011;41287;47.554;7.844;2023-02-16T07:08:43;6.43;;;2.63;;
55417;SDS011;41287;47.554;7.844;2023-02-16T07:11:10;3.85;;;2.70;;
55417;SDS011;41287;47.554;7.844;2023-02-16T07:13:36;3.90;;;2.85;;
55417;SDS011;41287;47.554;7.844;2023-02-16T07:16:02;7.32;;;3.13;;
55417;SDS011;41287;47.554;7.844;2023-02-16T07:18:29;5.57;;;2.88;;
55417;SDS011;41287;47.554;7.844;2023-02-16T07:20:55;4.43;;;2.85;;
55417;SDS011;41287;47.554;7.844;2023-02-16T07:23:20;5.72;;;2.72;;
55417;SDS011;41287;47.554;7.844;2023-02-16T07:25:46;4.65;;;2.75;;
55417;SDS011;41287;47.554;7.844;2023-02-16T07:28:12;4.45;;;2.50;;
55417;SDS011;41287;47.554;7.844;2023-02-16T07:30:37;4.90;;;2.83;;
55417;SDS011;41287;47.554;7.844;2023-02-16T07:33:03;3.95;;;2.30;;
55417;SDS011;41287;47.554;7.844;2023-02-16T07:35:29;4.43;;;2.53;;
55417;SDS011;41287;47.554;7.844;2023-02-16T07:37:59;3.88;;;2.60;;
55417;SDS011;41287;47.554;7.844;2023-02-16T07:40:25;3.10;;;2.25;;
55417;SDS011;41287;47.554;7.844;2023-02-16T07:42:51;4.60;;;2.58;;
55417;SDS011;41287;47.554;7.844;2023-02-16T07:45:16;4.00;;;2.33;;
55417;SDS011;41287;47.554;7.844;2023-02-16T07:47:42;4.68;;;2.42;;
55417;SDS011;41287;47.554;7.844;2023-02-16T07:50:07;7.93;;;2.72;;
55417;SDS011;41287;47.554;7.844;2023-02-16T07:52:33;4.47;;;2.03;;
55417;SDS011;41287;47.554;7.844;2023-02-16T07:55:03;4.53;;;2.28;;
55417;SDS011;41287;47.554;7.844;2023-02-16T07:57:29;4.20;;;2.10;;
55417;SDS011;41287;47.554;7.844;2023-02-16T07:59:54;4.32;;;2.35;;
55417;SDS011;41287;47.554;7.844;2023-02-16T08:02:20;3.38;;;2.20;;
55417;SDS011;41287;47.554;7.844;2023-02-16T08:04:48;3.92;;;1.95;;
55417;SDS011;41287;47.554;7.844;2023-02-16T08:07:16;4.80;;;2.33;;
55417;SDS011;41287;47.554;7.844;2023-02-16T08:09:47;3.03;;;1.77;;
55417;SDS011;41287;47.554;7.844;2023-02-16T08:12:13;3.75;;;2.13;;
55417;SDS011;41287;47.554;7.844;2023-02-16T08:14:40;3.45;;;2.28;;
55417;SDS011;41287;47.554;7.844;2023-02-16T08:17:06;4.05;;;2.10;;
55417;SDS011;41287;47.554;7.844;2023-02-16T08:19:32;2.90;;;2.03;;
55417;SDS011;41287;47.554;7.844;2023-02-16T08:21:58;4.32;;;2.10;;
55417;SDS011;41287;47.554;7.844;2023-02-16T08:24:24;2.83;;;2.05;;
55417;SDS011;41287;47.554;7.844;2023-02-16T08:26:50;3.33;;;2.08;;
55417;SDS011;41287;47.554;7.844;2023-02-16T08:29:18;3.90;;;1.88;;
55417;SDS011;41287;47.554;7.844;2023-02-16T08:31:44;4.25;;;2.10;;
55417;SDS011;41287;47.554;7.844;2023-02-16T08:34:12;2.75;;;1.90;;
55417;SDS011;41287;47.554;7.844;2023-02-16T08:36:39;5.15;;;2.22;;
55417;SDS011;41287;47.554;7.844;2023-02-16T08:39:06;4.50;;;2.05;;
55417;SDS011;41287;47.554;7.844;2023-02-16T08:41:37;3.30;;;1.95;;
55417;SDS011;41287;47.554;7.844;2023-02-16T08:44:05;3.80;;;1.83;;
55417;SDS011;41287;47.554;7.844;2023-02-16T08:46:32;3.33;;;1.75;;
55417;SDS011;41287;47.554;7.844;2023-02-16T08:48:58;3.15;;;1.88;;
55417;SDS011;41287;47.554;7.844;2023-02-16T08:51:28;3.38;;;2.10;;
55417;SDS011;41287;47.554;7.844;2023-02-16T08:53:57;3.90;;;1.83;;
55417;SDS011;41287;47.554;7.844;2023-02-16T08:56:24;3.53;;;2.13;;
55417;SDS011;41287;47.554;7.844;2023-02-16T08:58:50;3.35;;;1.67;;
55417;SDS011;41287;47.554;7.844;2023-02-16T09:01:15;4.15;;;2.08;;
55417;SDS011;41287;47.554;7.844;2023-02-16T09:03:41;3.50;;;2.22;;
55417;SDS011;41287;47.554;7.844;2023-02-16T09:06:09;5.22;;;2.00;;
55417;SDS011;41287;47.554;7.844;2023-02-16T09:08:37;4.20;;;2.22;;
55417;SDS011;41287;47.554;7.844;2023-02-16T09:11:08;3.65;;;1.95;;
55417;SDS011;41287;47.554;7.844;2023-02-16T09:13:35;4.63;;;1.80;;
55417;SDS011;41287;47.554;7.844;2023-02-16T09:16:04;3.22;;;2.00;;
55417;SDS011;41287;47.554;7.844;2023-02-16T09:18:32;3.38;;;2.03;;
55417;SDS011;41287;47.554;7.844;2023-02-16T09:21:08;4.25;;;2.40;;
55417;SDS011;41287;47.554;7.844;2023-02-16T09:23:38;3.20;;;1.95;;
55417;SDS011;41287;47.554;7.844;2023-02-16T09:26:05;2.58;;;1.60;;
55417;SDS011;41287;47.554;7.844;2023-02-16T09:28:37;2.08;;;1.63;;
55417;SDS011;41287;47.554;7.844;2023-02-16T09:33:44;3.58;;;2.00;;
55417;SDS011;41287;47.554;7.844;2023-02-16T09:36:11;4.30;;;2.45;;
55417;SDS011;41287;47.554;7.844;2023-02-16T09:38:37;3.38;;;1.83;;
55417;SDS011;41287;47.554;7.844;2023-02-16T09:44:02;4.53;;;1.85;;
55417;SDS011;41287;47.554;7.844;2023-02-16T09:46:37;2.58;;;1.88;;
55417;SDS011;41287;47.554;7.844;2023-02-16T09:49:04;3.13;;;1.67;;
55417;SDS011;41287;47.554;7.844;2023-02-16T09:51:36;4.07;;;1.90;;
55417;SDS011;41287;47.554;7.844;2023-02-16T09:57:10;2.13;;;1.67;;
55417;SDS011;41287;47.554;7.844;2023-02-16T09:59:55;2.40;;;1.60;;
55417;SDS011;41287;47.554;7.844;2023-02-16T10:05:15;3.65;;;1.92;;
55417;SDS011;41287;47.554;7.844;2023-02-16T10:10:30;2.80;;;1.77;;
55417;SDS011;41287;47.554;7.844;2023-02-16T10:12:59;3.45;;;2.15;;
55417;SDS011;41287;47.554;7.844;2023-02-16T10:15:29;2.85;;;1.90;;
55417;SDS011;41287;47.554;7.844;2023-02-16T10:17:58;4.38;;;1.90;;
55417;SDS011;41287;47.554;7.844;2023-02-16T10:20:36;2.35;;;1.70;;
55417;SDS011;41287;47.554;7.844;2023-02-16T10:26:13;3.33;;;2.10;;
55417;SDS011;41287;47.554;7.844;2023-02-16T10:28:50;3.50;;;2.17;;
55417;SDS011;41287;47.554;7.844;2023-02-16T10:33:59;3.33;;;1.90;;
55417;SDS011;41287;47.554;7.844;2023-02-16T10:42:01;3.03;;;2.03;;
55417;SDS011;41287;47.554;7.844;2023-02-16T10:47:36;3.97;;;1.88;;
55417;SDS011;41287;47.554;7.844;2023-02-16T10:50:05;3.22;;;2.05;;
55417;SDS011;41287;47.554;7.844;2023-02-16T10:52:39;3.50;;;2.15;;
55417;SDS011;41287;47.554;7.844;2023-02-16T10:55:06;4.13;;;2.30;;
55417;SDS011;41287;47.554;7.844;2023-02-16T10:57:32;3.92;;;2.10;;
55417;SDS011;41287;47.554;7.844;2023-02-16T11:00:01;3.45;;;2.10;;
55417;SDS011;41287;47.554;7.844;2023-02-16T11:02:38;3.40;;;2.28;;
55417;SDS011;41287;47.554;7.844;2023-02-16T11:07:53;4.82;;;2.40;;
55417;SDS011;41287;47.554;7.844;2023-02-16T11:10:22;3.15;;;2.38;;
55417;SDS011;41287;47.554;7.844;2023-02-16T11:12:59;3.53;;;2.40;;
55417;SDS011;41287;47.554;7.844;2023-02-16T11:15:25;5.28;;;2.33;;
55417;SDS011;41287;47.554;7.844;2023-02-16T11:18:00;3.33;;;2.13;;
55417;SDS011;41287;47.554;7.844;2023-02-16T11:20:53;3.35;;;2.38;;
55417;SDS011;41287;47.554;7.844;2023-02-16T11:25:55;3.92;;;1.90;;
55417;SDS011;41287;47.554;7.844;2023-02-16T11:28:28;2.70;;;2.00;;
55417;SDS011;41287;47.554;7.844;2023-02-16T11:31:00;5.35;;;2.20;;
55417;SDS011;41287;47.554;7.844;2023-02-16T11:33:28;2.80;;;2.13;;
55417;SDS011;41287;47.554;7.844;2023-02-16T11:35:54;3.80;;;2.10;;
55417;SDS011;41287;47.554;7.844;2023-02-16T11:38:33;5.10;;;2.20;;
55417;SDS011;41287;47.554;7.844;2023-02-16T11:41:04;2.60;;;2.13;;
55417;SDS011;41287;47.554;7.844;2023-02-16T11:43:36;2.92;;;2.15;;
55417;SDS011;41287;47.554;7.844;2023-02-16T11:46:04;4.10;;;2.13;;
55417;SDS011;41287;47.554;7.844;2023-02-16T11:48:39;4.43;;;2.05;;
55417;SDS011;41287;47.554;7.844;2023-02-16T11:51:09;3.80;;;2.10;;
55417;SDS011;41287;47.554;7.844;2023-02-16T11:53:39;3.83;;;2.40;;
55417;SDS011;41287;47.554;7.844;2023-02-16T11:58:40;3.35;;;2.15;;
55417;SDS011;41287;47.554;7.844;2023-02-16T12:03:55;2.97;;;1.92;;
55417;SDS011;41287;47.554;7.844;2023-02-16T12:10:06;3.95;;;2.28;;
55417;SDS011;41287;47.554;7.844;2023-02-16T12:17:55;3.67;;;2.25;;
55417;SDS011;41287;47.554;7.844;2023-02-16T12:20:57;4.18;;;1.92;;
55417;SDS011;41287;47.554;7.844;2023-02-16T12:26:35;3.25;;;2.00;;
55417;SDS011;41287;47.554;7.844;2023-02-16T12:29:11;4.22;;;2.25;;
55417;SDS011;41287;47.554;7.844;2023-02-16T12:32:02;3.88;;;1.85;;
55417;SDS011;41287;47.554;7.844;2023-02-16T12:43:00;3.42;;;2.10;;
55417;SDS011;41287;47.554;7.844;2023-02-16T12:45:38;2.70;;;1.73;;
55417;SDS011;41287;47.554;7.844;2023-02-16T12:50:35;2.70;;;1.70;;
55417;SDS011;41287;47.554;7.844;2023-02-16T12:53:15;4.40;;;2.22;;
55417;SDS011;41287;47.554;7.844;2023-02-16T12:55:46;3.15;;;1.90;;
55417;SDS011;41287;47.554;7.844;2023-02-16T12:58:29;3.70;;;1.83;;
55417;SDS011;41287;47.554;7.844;2023-02-16T13:01:10;2.78;;;2.00;;
55417;SDS011;41287;47.554;7.844;2023-02-16T13:06:25;4.20;;;2.10;;
55417;SDS011;41287;47.554;7.844;2023-02-16T13:11:47;3.33;;;2.03;;
55417;SDS011;41287;47.554;7.844;2023-02-16T13:14:16;3.28;;;2.10;;
55417;SDS011;41287;47.554;7.844;2023-02-16T13:16:48;2.13;;;1.52;;
55417;SDS011;41287;47.554;7.844;2023-02-16T13:19:19;4.03;;;1.90;;
55417;SDS011;41287;47.554;7.844;2023-02-16T13:33:00;3.00;;;1.77;;
55417;SDS011;41287;47.554;7.844;2023-02-16T13:41:25;4.07;;;1.65;;
55417;SDS011;41287;47.554;7.844;2023-02-16T13:44:14;2.92;;;2.10;;
55417;SDS011;41287;47.554;7.844;2023-02-16T13:46:43;3.03;;;1.80;;
55417;SDS011;41287;47.554;7.844;2023-02-16T13:51:51;3.20;;;1.77;;
55417;SDS011;41287;47.554;7.844;2023-02-16T13:54:25;4.10;;;2.05;;
55417;SDS011;41287;47.554;7.844;2023-02-16T13:56:54;2.88;;;1.77;;
55417;SDS011;41287;47.554;7.844;2023-02-16T14:01:46;2.55;;;1.85;;
55417;SDS011;41287;47.554;7.844;2023-02-16T14:06:46;2.90;;;1.88;;
55417;SDS011;41287;47.554;7.844;2023-02-16T14:14:31;3.75;;;1.70;;
55417;SDS011;41287;47.554;7.844;2023-02-16T14:17:45;5.13;;;1.98;;
55417;SDS011;41287;47.554;7.844;2023-02-16T14:22:17;3.20;;;2.00;;
55417;SDS011;41287;47.554;7.844;2023-02-16T14:24:49;2.28;;;1.65;;
55417;SDS011;41287;47.554;7.844;2023-02-16T14:30:52;2.85;;;1.73;;
55417;SDS011;41287;47.554;7.844;2023-02-16T14:35:37;3.50;;;1.75;;
55417;SDS011;41287;47.554;7.844;2023-02-16T14:38:19;4.70;;;2.10;;
55417;SDS011;41287;47.554;7.844;2023-02-16T14:40:55;4.60;;;1.95;;
55417;SDS011;41287;47.554;7.844;2023-02-16T14:43:32;2.03;;;1.60;;
55417;SDS011;41287;47.554;7.844;2023-02-16T14:59:54;2.63;;;1.77;;
55417;SDS011;41287;47.554;7.844;2023-02-16T15:02:36;3.27;;;1.70;;
55417;SDS011;41287;47.554;7.844;2023-02-16T15:05:17;3.05;;;2.00;;
55417;SDS011;41287;47.554;7.844;2023-02-16T15:07:48;4.22;;;2.13;;
55417;SDS011;41287;47.554;7.844;2023-02-16T15:10:21;4.35;;;2.10;;
55417;SDS011;41287;47.554;7.844;2023-02-16T15:12:56;3.30;;;1.90;;
55417;SDS011;41287;47.554;7.844;2023-02-16T15:15:38;4.93;;;2.13;;
55417;SDS011;41287;47.554;7.844;2023-02-16T15:18:11;3.30;;;2.00;;
55417;SDS011;41287;47.554;7.844;2023-02-16T15:20:40;3.03;;;1.98;;
55417;SDS011;41287;47.554;7.844;2023-02-16T15:23:23;2.47;;;1.83;;
55417;SDS011;41287;47.554;7.844;2023-02-16T15:28:33;3.72;;;2.20;;
55417;SDS011;41287;47.554;7.844;2023-02-16T15:31:04;3.70;;;2.05;;
55417;SDS011;41287;47.554;7.844;2023-02-16T15:33:33;4.35;;;2.50;;
55417;SDS011;41287;47.554;7.844;2023-02-16T15:36:05;2.80;;;1.88;;
55417;SDS011;41287;47.554;7.844;2023-02-16T15:38:36;2.92;;;1.98;;
55417;SDS011;41287;47.554;7.844;2023-02-16T15:41:05;3.20;;;2.15;;
55417;SDS011;41287;47.554;7.844;2023-02-16T15:46:11;2.83;;;2.13;;
55417;SDS011;41287;47.554;7.844;2023-02-16T15:48:40;2.83;;;2.00;;
55417;SDS011;41287;47.554;7.844;2023-02-16T15:51:09;3.60;;;2.00;;
55417;SDS011;41287;47.554;7.844;2023-02-16T15:56:26;2.42;;;1.70;;
55417;SDS011;41287;47.554;7.844;2023-02-16T15:58:52;3.25;;;1.90;;
55417;SDS011;41287;47.554;7.844;2023-02-16T16:01:21;5.00;;;2.33;;
55417;SDS011;41287;47.554;7.844;2023-02-16T16:03:49;2.72;;;1.95;;
55417;SDS011;41287;47.554;7.844;2023-02-16T16:06:14;3.00;;;2.13;;
55417;SDS011;41287;47.554;7.844;2023-02-16T16:08:40;4.00;;;1.92;;
55417;SDS011;41287;47.554;7.844;2023-02-16T16:11:05;4.78;;;2.10;;
55417;SDS011;41287;47.554;7.844;2023-02-16T16:13:32;2.97;;;1.95;;
55417;SDS011;41287;47.554;7.844;2023-02-16T16:15:59;4.03;;;2.22;;
55417;SDS011;41287;47.554;7.844;2023-02-16T16:18:34;4.53;;;2.22;;
55417;SDS011;41287;47.554;7.844;2023-02-16T16:21:10;2.55;;;1.90;;
55417;SDS011;41287;47.554;7.844;2023-02-16T16:23:54;3.00;;;1.92;;
55417;SDS011;41287;47.554;7.844;2023-02-16T16:26:24;3.17;;;1.90;;
55417;SDS011;41287;47.554;7.844;2023-02-16T16:28:51;4.70;;;1.95;;
55417;SDS011;41287;47.554;7.844;2023-02-16T16:33:52;2.42;;;1.70;;
55417;SDS011;41287;47.554;7.844;2023-02-16T16:36:29;3.20;;;2.30;;
55417;SDS011;41287;47.554;7.844;2023-02-16T16:41:41;3.40;;;1.80;;
55417;SDS011;41287;47.554;7.844;2023-02-16T16:44:10;4.05;;;2.20;;
55417;SDS011;41287;47.554;7.844;2023-02-16T16:46:51;3.45;;;1.90;;
55417;SDS011;41287;47.554;7.844;2023-02-16T16:49:17;2.97;;;1.92;;
55417;SDS011;41287;47.554;7.844;2023-02-16T16:51:42;3.17;;;1.98;;
55417;SDS011;41287;47.554;7.844;2023-02-16T16:54:49;6.28;;;2.10;;
55417;SDS011;41287;47.554;7.844;2023-02-16T16:56:57;1.90;;;1.58;;
55417;SDS011;41287;47.554;7.844;2023-02-16T16:59:23;3.35;;;1.60;;
55417;SDS011;41287;47.554;7.844;2023-02-16T17:01:48;3.15;;;1.90;;
55417;SDS011;41287;47.554;7.844;2023-02-16T17:04:14;4.40;;;1.75;;
55417;SDS011;41287;47.554;7.844;2023-02-16T17:06:40;3.15;;;1.73;;
55417;SDS011;41287;47.554;7.844;2023-02-16T17:09:06;3.60;;;2.17;;
55417;SDS011;41287;47.554;7.844;2023-02-16T17:11:33;4.63;;;2.00;;
55417;SDS011;41287;47.554;7.844;2023-02-16T17:14:07;3.22;;;1.90;;
55417;SDS011;41287;47.554;7.844;2023-02-16T17:16:42;4.32;;;1.65;;
55417;SDS011;41287;47.554;7.844;2023-02-16T17:19:13;3.03;;;2.05;;
55417;SDS011;41287;47.554;7.844;2023-02-16T17:21:41;7.22;;;1.70;;
55417;SDS011;41287;47.554;7.844;2023-02-16T17:24:06;2.40;;;1.80;;
55417;SDS011;41287;47.554;7.844;2023-02-16T17:26:34;6.18;;;2.38;;
55417;SDS011;41287;47.554;7.844;2023-02-16T17:29:00;3.17;;;1.83;;
55417;SDS011;41287;47.554;7.844;2023-02-16T17:31:25;2.85;;;1.80;;
55417;SDS011;41287;47.554;7.844;2023-02-16T17:33:50;2.47;;;1.63;;
55417;SDS011;41287;47.554;7.844;2023-02-16T17:36:16;3.50;;;2.17;;
55417;SDS011;41287;47.554;7.844;2023-02-16T17:38:45;3.85;;;2.30;;
55417;SDS011;41287;47.554;7.844;2023-02-16T17:41:17;2.97;;;1.70;;
55417;SDS011;41287;47.554;7.844;2023-02-16T17:43:43;3.75;;;2.10;;
55417;SDS011;41287;47.554;7.844;2023-02-16T17:46:08;3.60;;;2.00;;